createdAt,value
2022-09-17T00:01:14.525Z,16.27
2022-09-17T00:03:42.603Z,16.27
2022-09-17T00:06:12.409Z,16.27
2022-09-17T00:08:41.396Z,16.23
2022-09-17T00:11:11.939Z,16.18
2022-09-17T00:13:40.439Z,16.11
2022-09-17T00:16:08.855Z,16.07
2022-09-17T00:18:40.897Z,16.03
2022-09-17T00:21:17.160Z,16.01
2022-09-17T00:23:45.910Z,15.99
2022-09-17T00:26:13.717Z,15.97
2022-09-17T00:28:45.547Z,15.98
2022-09-17T00:31:13.486Z,15.99
2022-09-17T00:33:41.402Z,16.01
2022-09-17T00:36:09.367Z,16.04
2022-09-17T00:38:37.210Z,16.04
2022-09-17T00:41:05.815Z,16.05
2022-09-17T00:43:47.649Z,16.04
2022-09-17T00:46:34.542Z,16.04
2022-09-17T00:49:17.871Z,16.04
2022-09-17T00:51:49.807Z,16.04
2022-09-17T00:54:18.036Z,16.05
2022-09-17T00:56:45.894Z,16.05
2022-09-17T00:59:15.146Z,16.04
2022-09-17T01:01:42.948Z,16.03
2022-09-17T01:04:16.468Z,16.00
2022-09-17T01:06:52.081Z,15.92
2022-09-17T01:09:26.029Z,15.78
2022-09-17T01:12:00.178Z,15.69
2022-09-17T01:14:37.101Z,15.63
2022-09-17T01:17:04.900Z,15.54
2022-09-17T01:19:32.681Z,15.43
2022-09-17T01:22:16.711Z,15.34
2022-09-17T01:24:47.787Z,15.26
2022-09-17T01:27:28.403Z,15.19
2022-09-17T01:30:05.168Z,15.10
2022-09-17T01:32:33.166Z,14.99
2022-09-17T01:35:09.482Z,14.88
2022-09-17T01:37:40.339Z,14.77
2022-09-17T01:40:08.692Z,14.67
2022-09-17T01:42:36.691Z,14.59
2022-09-17T01:45:15.035Z,14.50
2022-09-17T01:47:42.901Z,14.44
2022-09-17T01:50:17.707Z,14.40
2022-09-17T01:52:49.062Z,14.37
2022-09-17T01:55:17.905Z,14.32
2022-09-17T01:57:50.558Z,14.26
2022-09-17T02:00:19.364Z,14.18
2022-09-17T02:03:05.922Z,14.11
2022-09-17T02:05:42.063Z,14.05
2022-09-17T02:08:16.064Z,14.02
2022-09-17T02:10:46.168Z,14.01
2022-09-17T02:13:19.613Z,14.01
2022-09-17T02:15:54.307Z,14.04
2022-09-17T02:18:29.941Z,14.09
2022-09-17T02:21:06.487Z,14.14
2022-09-17T02:23:41.389Z,14.17
2022-09-17T02:26:15.553Z,14.17
2022-09-17T02:28:46.521Z,14.14
2022-09-17T02:31:14.956Z,14.12
2022-09-17T02:33:45.101Z,14.10
2022-09-17T02:36:13.323Z,14.05
2022-09-17T02:38:42.320Z,14.03
2022-09-17T02:41:18.692Z,14.03
2022-09-17T02:43:56.546Z,14.01
2022-09-17T02:46:43.464Z,13.99
2022-09-17T02:49:29.975Z,13.96
2022-09-17T02:52:07.547Z,13.92
2022-09-17T02:54:47.441Z,13.87
2022-09-17T02:57:27.175Z,13.81
2022-09-17T03:00:15.371Z,13.75
2022-09-17T03:02:48.940Z,13.68
2022-09-17T03:05:21.782Z,13.63
2022-09-17T03:07:50.827Z,13.59
2022-09-17T03:10:19.989Z,13.56
2022-09-17T03:12:47.820Z,13.55
2022-09-17T03:15:15.992Z,13.53
2022-09-17T03:17:43.876Z,13.48
2022-09-17T03:20:11.747Z,13.44
2022-09-17T03:22:39.608Z,13.43
2022-09-17T03:25:07.661Z,13.43
2022-09-17T03:27:35.597Z,13.43
2022-09-17T03:30:04.054Z,13.43
2022-09-17T03:32:31.936Z,13.41
2022-09-17T03:34:59.834Z,13.39
2022-09-17T03:37:32.223Z,13.37
2022-09-17T03:40:01.170Z,13.35
2022-09-17T03:42:29.116Z,13.30
2022-09-17T03:44:57.313Z,13.27
2022-09-17T03:47:25.325Z,13.26
2022-09-17T03:49:53.183Z,13.28
2022-09-17T03:52:21.369Z,13.32
2022-09-17T03:54:49.357Z,13.34
2022-09-17T03:57:17.154Z,13.37
2022-09-17T03:59:45.009Z,13.38
2022-09-17T04:02:13.147Z,13.36
2022-09-17T04:04:41.036Z,13.37
2022-09-17T04:07:08.996Z,13.38
2022-09-17T04:09:36.911Z,13.39
2022-09-17T04:12:04.820Z,13.40
2022-09-17T04:14:32.795Z,13.39
2022-09-17T04:17:01.075Z,13.41
2022-09-17T04:19:29.148Z,13.41
2022-09-17T04:21:56.989Z,13.41
2022-09-17T04:24:25.094Z,13.43
2022-09-17T04:26:52.857Z,13.44
2022-09-17T04:29:20.929Z,13.44
2022-09-17T04:31:48.866Z,13.45
2022-09-17T04:34:16.819Z,13.44
2022-09-17T04:36:44.794Z,13.40
2022-09-17T04:39:12.739Z,13.37
2022-09-17T04:41:40.840Z,13.32
2022-09-17T04:44:08.713Z,13.28
2022-09-17T04:46:36.721Z,13.25
2022-09-17T04:49:04.673Z,13.17
2022-09-17T04:51:32.448Z,13.11
2022-09-17T04:54:00.264Z,13.07
2022-09-17T04:56:28.088Z,13.03
2022-09-17T04:58:55.958Z,13.00
2022-09-17T05:01:23.887Z,13.01
2022-09-17T05:03:51.827Z,13.02
2022-09-17T05:06:20.406Z,13.03
2022-09-17T05:08:48.315Z,13.04
2022-09-17T05:11:16.215Z,13.04
2022-09-17T05:13:44.092Z,13.05
2022-09-17T05:16:12.709Z,13.04
2022-09-17T05:18:40.679Z,13.03
2022-09-17T05:21:08.540Z,13.02
2022-09-17T05:23:36.384Z,12.99
2022-09-17T05:26:04.435Z,12.97
2022-09-17T05:28:32.380Z,12.94
2022-09-17T05:31:00.256Z,12.93
2022-09-17T05:33:28.910Z,12.93
2022-09-17T05:35:56.902Z,12.94
2022-09-17T05:38:24.852Z,12.95
2022-09-17T05:40:52.919Z,12.93
2022-09-17T05:43:20.842Z,12.90
2022-09-17T05:45:48.808Z,12.86
2022-09-17T05:48:17.466Z,12.85
2022-09-17T05:50:45.332Z,12.86
2022-09-17T05:53:13.967Z,12.83
2022-09-17T05:55:42.607Z,12.81
2022-09-17T05:58:15.101Z,12.80
2022-09-17T06:00:43.554Z,12.80
2022-09-17T06:03:12.106Z,12.80
2022-09-17T06:05:40.489Z,12.83
2022-09-17T06:08:09.381Z,12.83
2022-09-17T06:10:38.607Z,12.83
2022-09-17T06:13:07.483Z,12.82
2022-09-17T06:15:35.391Z,12.83
2022-09-17T06:18:03.228Z,12.86
2022-09-17T06:20:31.010Z,12.89
2022-09-17T06:22:59.329Z,12.92
2022-09-17T06:25:29.708Z,12.92
2022-09-17T06:27:57.586Z,12.91
2022-09-17T06:30:25.562Z,12.91
2022-09-17T06:32:53.518Z,12.91
2022-09-17T06:35:21.434Z,12.91
2022-09-17T06:37:49.274Z,12.91
2022-09-17T06:40:17.827Z,12.91
2022-09-17T06:42:45.820Z,12.89
2022-09-17T06:45:16.722Z,12.86
2022-09-17T06:47:45.294Z,12.86
2022-09-17T06:50:13.325Z,12.86
2022-09-17T06:52:47.868Z,12.86
2022-09-17T06:55:16.373Z,12.85
2022-09-17T06:57:44.275Z,12.83
2022-09-17T07:00:13.358Z,12.80
2022-09-17T07:02:41.424Z,12.79
2022-09-17T07:05:09.411Z,12.79
2022-09-17T07:07:37.447Z,12.76
2022-09-17T07:10:05.446Z,12.75
2022-09-17T07:12:33.330Z,12.73
2022-09-17T07:15:01.213Z,12.71
2022-09-17T07:17:29.714Z,12.68
2022-09-17T07:19:57.631Z,12.64
2022-09-17T07:22:28.234Z,12.60
2022-09-17T07:24:56.377Z,12.59
2022-09-17T07:27:24.397Z,12.60
2022-09-17T07:29:52.233Z,12.62
2022-09-17T07:32:20.087Z,12.64
2022-09-17T07:34:48.802Z,12.67
2022-09-17T07:37:16.932Z,12.71
2022-09-17T07:39:45.355Z,12.76
2022-09-17T07:42:17.732Z,12.76
2022-09-17T07:44:46.900Z,12.79
2022-09-17T07:47:14.870Z,12.79
2022-09-17T07:49:42.735Z,12.79
2022-09-17T07:52:10.922Z,12.81
2022-09-17T07:54:38.904Z,12.85
2022-09-17T07:57:09.272Z,12.88
2022-09-17T07:59:37.787Z,12.93
2022-09-17T08:02:09.480Z,12.97
2022-09-17T08:04:37.350Z,13.00
2022-09-17T08:07:05.142Z,13.03
2022-09-17T08:09:33.634Z,13.08
2022-09-17T08:12:01.698Z,13.14
2022-09-17T08:14:30.148Z,13.22
2022-09-17T08:16:58.267Z,13.29
2022-09-17T08:19:26.160Z,13.32
2022-09-17T08:21:54.143Z,13.34
2022-09-17T08:24:21.953Z,13.36
2022-09-17T08:26:49.797Z,13.37
2022-09-17T08:29:17.674Z,13.39
2022-09-17T08:31:45.567Z,13.40
2022-09-17T08:34:13.835Z,13.44
2022-09-17T08:36:41.895Z,13.49
2022-09-17T08:39:12.287Z,13.52
2022-09-17T08:41:40.471Z,13.54
2022-09-17T08:44:20.473Z,13.61
2022-09-17T08:46:53.683Z,13.66
2022-09-17T08:49:27.523Z,13.69
2022-09-17T08:52:21.120Z,13.73
2022-09-17T08:54:48.946Z,13.78
2022-09-17T08:57:17.349Z,13.85
2022-09-17T08:59:57.308Z,13.89
2022-09-17T09:02:36.706Z,13.92
2022-09-17T09:05:04.695Z,13.92
2022-09-17T09:07:37.761Z,13.93
2022-09-17T09:10:05.953Z,13.94
2022-09-17T09:12:35.800Z,13.93
2022-09-17T09:15:08.273Z,13.93
2022-09-17T09:17:41.948Z,13.94
2022-09-17T09:20:35.041Z,13.97
2022-09-17T09:23:21.936Z,14.03
2022-09-17T09:26:10.191Z,14.10
2022-09-17T09:28:58.294Z,14.17
2022-09-17T09:31:47.746Z,14.23
2022-09-17T09:34:16.335Z,14.30
2022-09-17T09:36:44.794Z,14.38
2022-09-17T09:39:25.691Z,14.43
2022-09-17T09:42:04.861Z,14.52
2022-09-17T09:44:32.927Z,14.59
2022-09-17T09:47:00.998Z,14.65
2022-09-17T09:49:48.475Z,14.72
2022-09-17T09:52:25.987Z,14.80
2022-09-17T09:55:02.992Z,14.82
2022-09-17T09:57:35.300Z,14.84
2022-09-17T10:00:22.257Z,14.84
2022-09-17T10:02:52.655Z,14.85
2022-09-17T10:05:20.795Z,14.88
2022-09-17T10:07:48.714Z,14.93
2022-09-17T10:10:16.645Z,14.95
2022-09-17T10:12:44.846Z,14.99
2022-09-17T10:15:38.860Z,15.05
2022-09-17T10:18:23.332Z,15.11
2022-09-17T10:20:51.114Z,15.14
2022-09-17T10:23:19.950Z,15.15
2022-09-17T10:25:49.609Z,15.15
2022-09-17T10:28:35.600Z,15.16
2022-09-17T10:31:08.624Z,15.18
2022-09-17T10:33:50.585Z,15.24
2022-09-17T10:36:37.945Z,15.36
2022-09-17T10:39:25.253Z,15.48
2022-09-17T10:41:54.824Z,15.60
2022-09-17T10:44:24.255Z,15.69
2022-09-17T10:46:52.735Z,15.76
2022-09-17T10:49:26.779Z,15.84
2022-09-17T10:52:04.779Z,15.88
2022-09-17T10:54:40.815Z,15.92
2022-09-17T10:57:10.119Z,15.97
2022-09-17T10:59:47.243Z,16.02
2022-09-17T11:02:25.565Z,16.05
2022-09-17T11:04:59.581Z,16.04
2022-09-17T11:07:41.420Z,16.03
2022-09-17T11:10:16.738Z,16.00
2022-09-17T11:12:59.783Z,15.99
2022-09-17T11:15:38.066Z,15.97
2022-09-17T11:18:05.879Z,15.94
2022-09-17T11:20:45.675Z,15.89
2022-09-17T11:23:19.493Z,15.88
2022-09-17T11:25:59.733Z,15.94
2022-09-17T11:28:31.646Z,16.01
2022-09-17T11:30:59.590Z,16.09
2022-09-17T11:33:38.777Z,16.15
2022-09-17T11:36:18.271Z,16.20
2022-09-17T11:38:50.450Z,16.25
2022-09-17T11:41:31.840Z,16.26
2022-09-17T11:43:59.696Z,16.24
2022-09-17T11:47:06.279Z,16.23
2022-09-17T11:49:37.672Z,16.23
2022-09-17T11:52:28.529Z,16.22
2022-09-17T11:55:00.418Z,16.24
2022-09-17T11:57:36.383Z,16.26
2022-09-17T12:00:24.212Z,16.29
2022-09-17T12:02:52.061Z,16.33
2022-09-17T12:05:25.372Z,16.36
2022-09-17T12:07:57.870Z,16.38
2022-09-17T12:10:25.721Z,16.43
2022-09-17T12:13:02.522Z,16.47
2022-09-17T12:15:33.212Z,16.48
2022-09-17T12:18:32.091Z,16.46
2022-09-17T12:21:03.025Z,16.43
2022-09-17T12:23:33.786Z,16.41
2022-09-17T12:26:16.790Z,16.40
2022-09-17T12:28:44.603Z,16.41
2022-09-17T12:31:20.112Z,16.42
2022-09-17T12:33:53.146Z,16.43
2022-09-17T12:36:48.833Z,16.42
2022-09-17T12:39:32.174Z,16.38
2022-09-17T12:42:11.763Z,16.34
2022-09-17T12:44:58.486Z,16.32
2022-09-17T12:47:38.758Z,16.35
2022-09-17T12:50:29.635Z,16.38
2022-09-17T12:53:07.322Z,16.39
2022-09-17T12:55:53.691Z,16.38
2022-09-17T12:58:21.611Z,16.36
2022-09-17T13:00:53.900Z,16.35
2022-09-17T13:03:25.000Z,16.33
2022-09-17T13:05:55.839Z,16.34
2022-09-17T13:08:46.841Z,16.33
2022-09-17T13:11:17.430Z,16.31
2022-09-17T13:13:54.489Z,16.34
2022-09-17T13:16:34.032Z,16.35
2022-09-17T13:19:16.585Z,16.39
2022-09-17T13:21:49.395Z,16.44
2022-09-17T13:24:18.312Z,16.47
2022-09-17T13:26:47.066Z,16.48
2022-09-17T13:29:33.563Z,16.51
2022-09-17T13:32:01.591Z,16.52
2022-09-17T13:34:31.604Z,16.49
2022-09-17T13:37:01.305Z,16.47
2022-09-17T13:39:32.576Z,16.45
2022-09-17T13:42:08.159Z,16.45
2022-09-17T13:44:37.738Z,16.44
2022-09-17T13:47:14.862Z,16.41
2022-09-17T13:49:49.737Z,16.40
2022-09-17T13:52:44.098Z,16.40
2022-09-17T13:55:31.937Z,16.41
2022-09-17T13:58:02.139Z,16.43
2022-09-17T14:00:49.142Z,16.43
2022-09-17T14:03:30.833Z,16.43
2022-09-17T14:06:22.290Z,16.42
2022-09-17T14:08:51.991Z,16.43
2022-09-17T14:11:22.715Z,16.43
2022-09-17T14:14:06.527Z,16.43
2022-09-17T14:16:43.196Z,16.43
2022-09-17T14:19:26.486Z,16.43
2022-09-17T14:22:06.878Z,16.42
2022-09-17T14:24:46.855Z,16.43
2022-09-17T14:27:14.753Z,16.42
2022-09-17T14:29:53.497Z,16.42
2022-09-17T14:32:51.010Z,16.44
2022-09-17T14:35:30.022Z,16.47
2022-09-17T14:37:59.447Z,16.49
2022-09-17T14:40:28.376Z,16.50
2022-09-17T14:42:57.567Z,16.49
2022-09-17T14:45:32.349Z,16.50
2022-09-17T14:48:22.232Z,16.51
2022-09-17T14:50:50.114Z,16.52
2022-09-17T14:53:19.478Z,16.52
2022-09-17T14:55:48.003Z,16.52
2022-09-17T14:58:31.620Z,16.52
2022-09-17T15:01:00.012Z,16.50
2022-09-17T15:03:27.957Z,16.48
2022-09-17T15:05:55.848Z,16.45
2022-09-17T15:08:24.696Z,16.41
2022-09-17T15:10:55.387Z,16.38
2022-09-17T15:13:27.634Z,16.35
2022-09-17T15:15:58.560Z,16.32
2022-09-17T15:18:34.454Z,16.30
2022-09-17T15:21:03.442Z,16.26
2022-09-17T15:23:34.038Z,16.23
2022-09-17T15:26:03.332Z,16.22
2022-09-17T15:28:34.148Z,16.20
2022-09-17T15:31:03.232Z,16.18
2022-09-17T15:33:32.770Z,16.18
2022-09-17T15:36:16.146Z,16.19
2022-09-17T15:38:45.243Z,16.20
2022-09-17T15:41:20.921Z,16.21
2022-09-17T15:43:50.826Z,16.22
2022-09-17T15:46:21.486Z,16.24
2022-09-17T15:48:50.009Z,16.25
2022-09-17T15:51:53.299Z,16.25
2022-09-17T15:54:29.987Z,16.23
2022-09-17T15:57:00.802Z,16.20
2022-09-17T15:59:29.834Z,16.16
2022-09-17T16:01:59.351Z,16.12
2022-09-17T16:04:30.158Z,16.07
2022-09-17T16:06:57.947Z,16.01
2022-09-17T16:09:41.562Z,15.97
2022-09-17T16:12:11.892Z,15.90
2022-09-17T16:14:44.691Z,15.85
2022-09-17T16:17:21.823Z,15.80
2022-09-17T16:19:49.862Z,15.73
2022-09-17T16:22:17.770Z,15.65
2022-09-17T16:24:46.109Z,15.58
2022-09-17T16:27:22.897Z,15.52
2022-09-17T16:29:52.882Z,15.47
2022-09-17T16:32:21.369Z,15.45
2022-09-17T16:34:49.340Z,15.43
2022-09-17T16:37:17.147Z,15.40
2022-09-17T16:39:45.018Z,15.37
2022-09-17T16:42:12.882Z,15.31
2022-09-17T16:44:40.836Z,15.26
2022-09-17T16:47:08.666Z,15.20
2022-09-17T16:49:36.590Z,15.17
2022-09-17T16:52:04.432Z,15.14
2022-09-17T16:54:32.248Z,15.11
2022-09-17T16:57:01.253Z,15.08
2022-09-17T16:59:29.196Z,15.04
2022-09-17T17:01:57.310Z,15.01
2022-09-17T17:04:25.332Z,14.98
2022-09-17T17:06:53.192Z,14.96
2022-09-17T17:09:21.147Z,14.95
2022-09-17T17:11:49.070Z,14.95
2022-09-17T17:14:17.057Z,14.94
2022-09-17T17:16:45.184Z,14.95
2022-09-17T17:19:13.100Z,14.96
2022-09-17T17:21:44.066Z,14.95
2022-09-17T17:24:15.241Z,14.97
2022-09-17T17:26:43.197Z,15.00
2022-09-17T17:29:11.058Z,15.03
2022-09-17T17:31:38.904Z,15.03
2022-09-17T17:34:07.341Z,15.03
2022-09-17T17:36:35.782Z,15.04
2022-09-17T17:39:03.689Z,15.05
2022-09-17T17:41:31.618Z,15.05
2022-09-17T17:43:59.527Z,15.05
2022-09-17T17:46:27.379Z,15.05
2022-09-17T17:48:55.373Z,15.06
2022-09-17T17:51:23.997Z,15.08
2022-09-17T17:53:51.906Z,15.09
2022-09-17T17:56:20.788Z,15.11
2022-09-17T17:58:48.731Z,15.14
2022-09-17T18:01:20.857Z,15.15
2022-09-17T18:03:49.132Z,15.15
2022-09-17T18:06:16.890Z,15.15
2022-09-17T18:08:44.784Z,15.13
2022-09-17T18:11:12.705Z,15.10
2022-09-17T18:13:40.727Z,15.07
2022-09-17T18:16:12.028Z,15.04
2022-09-17T18:18:44.714Z,14.99
2022-09-17T18:21:16.029Z,14.96
2022-09-17T18:23:44.381Z,14.93
2022-09-17T18:26:16.985Z,14.92
2022-09-17T18:28:45.479Z,14.90
2022-09-17T18:31:16.136Z,14.88
2022-09-17T18:33:44.037Z,14.84
2022-09-17T18:36:11.947Z,14.78
2022-09-17T18:38:39.789Z,14.76
2022-09-17T18:41:09.977Z,14.72
2022-09-17T18:43:37.996Z,14.68
2022-09-17T18:46:06.019Z,14.66
2022-09-17T18:48:36.500Z,14.63
2022-09-17T18:51:10.081Z,14.55
2022-09-17T18:53:38.637Z,14.49
2022-09-17T18:56:06.404Z,14.46
2022-09-17T18:58:34.830Z,14.44
2022-09-17T19:01:06.433Z,14.40
2022-09-17T19:03:34.946Z,14.35
2022-09-17T19:06:04.298Z,14.30
2022-09-17T19:08:32.511Z,14.27
2022-09-17T19:11:00.586Z,14.23
2022-09-17T19:13:33.537Z,14.17
2022-09-17T19:16:02.697Z,14.13
2022-09-17T19:18:30.611Z,14.10
2022-09-17T19:20:59.144Z,14.07
2022-09-17T19:23:27.010Z,14.03
2022-09-17T19:25:55.089Z,13.99
2022-09-17T19:28:23.375Z,13.97
2022-09-17T19:30:51.378Z,13.96
2022-09-17T19:33:19.295Z,13.95
2022-09-17T19:35:47.536Z,13.95
2022-09-17T19:38:15.428Z,13.96
2022-09-17T19:40:44.979Z,13.96
2022-09-17T19:43:12.916Z,13.96
2022-09-17T19:45:40.669Z,13.95
2022-09-17T19:48:08.537Z,13.92
2022-09-17T19:50:37.168Z,13.91
2022-09-17T19:53:05.222Z,13.91
2022-09-17T19:55:33.066Z,13.92
2022-09-17T19:58:04.728Z,13.94
2022-09-17T20:00:32.503Z,13.97
2022-09-17T20:03:00.586Z,13.99
2022-09-17T20:05:28.641Z,13.99
2022-09-17T20:07:56.662Z,13.99
2022-09-17T20:10:24.692Z,13.97
2022-09-17T20:12:53.017Z,13.95
2022-09-17T20:15:21.567Z,13.93
2022-09-17T20:17:49.644Z,13.92
2022-09-17T20:20:17.896Z,13.93
2022-09-17T20:22:45.852Z,13.94
2022-09-17T20:25:13.751Z,13.93
2022-09-17T20:27:41.674Z,13.93
2022-09-17T20:30:09.850Z,13.95
2022-09-17T20:32:37.779Z,13.98
2022-09-17T20:35:05.907Z,13.99
2022-09-17T20:38:18.841Z,13.99
2022-09-17T20:40:21.855Z,13.97
2022-09-17T20:42:50.057Z,13.96
2022-09-17T20:45:17.841Z,13.96
2022-09-17T20:47:47.859Z,13.95
2022-09-17T20:50:15.736Z,13.94
2022-09-17T20:52:43.559Z,13.94
2022-09-17T20:55:11.441Z,13.92
2022-09-17T20:57:39.289Z,13.87
2022-09-17T21:00:18.056Z,13.81
2022-09-17T21:02:50.701Z,13.76
2022-09-17T21:05:18.809Z,13.72
2022-09-17T21:07:46.771Z,13.68
2022-09-17T21:10:14.648Z,13.64
2022-09-17T21:12:42.372Z,13.61
2022-09-17T21:15:10.351Z,13.58
2022-09-17T21:17:40.811Z,13.57
2022-09-17T21:20:08.920Z,13.58
2022-09-17T21:22:36.741Z,13.58
2022-09-17T21:25:05.021Z,13.57
2022-09-17T21:27:32.918Z,13.55
2022-09-17T21:30:02.640Z,13.50
2022-09-17T21:32:30.481Z,13.45
2022-09-17T21:34:58.488Z,13.42
2022-09-17T21:37:27.180Z,13.40
2022-09-17T21:39:55.143Z,13.36
2022-09-17T21:42:23.177Z,13.34
2022-09-17T21:44:51.122Z,13.31
2022-09-17T21:47:19.017Z,13.29
2022-09-17T21:49:47.208Z,13.27
2022-09-17T21:52:15.307Z,13.25
2022-09-17T21:54:43.146Z,13.24
2022-09-17T21:57:11.051Z,13.23
2022-09-17T21:59:39.055Z,13.23
2022-09-17T22:02:07.297Z,13.24
2022-09-17T22:04:35.248Z,13.24
2022-09-17T22:07:03.121Z,13.24
2022-09-17T22:09:31.055Z,13.25
2022-09-17T22:12:01.247Z,13.27
2022-09-17T22:14:29.138Z,13.29
2022-09-17T22:16:58.863Z,13.30
2022-09-17T22:19:27.469Z,13.28
2022-09-17T22:21:55.758Z,13.28
2022-09-17T22:24:24.504Z,13.29
2022-09-17T22:26:57.416Z,13.29
2022-09-17T22:29:27.415Z,13.31
2022-09-17T22:31:55.435Z,13.33
2022-09-17T22:34:23.371Z,13.33
2022-09-17T22:36:51.140Z,13.33
2022-09-17T22:39:21.901Z,13.32
2022-09-17T22:41:50.717Z,13.32
2022-09-17T22:44:19.516Z,13.30
2022-09-17T22:46:48.939Z,13.27
2022-09-17T22:49:17.585Z,13.25
2022-09-17T22:51:47.384Z,13.26
2022-09-17T22:54:18.696Z,13.27
2022-09-17T22:56:48.330Z,13.24
2022-09-17T22:59:16.392Z,13.19
2022-09-17T23:01:44.276Z,13.16
2022-09-17T23:04:12.232Z,13.13
2022-09-17T23:06:42.326Z,13.09
2022-09-17T23:09:12.068Z,13.02
2022-09-17T23:11:40.125Z,12.99
2022-09-17T23:14:10.028Z,12.98
2022-09-17T23:16:42.404Z,12.99
2022-09-17T23:19:12.015Z,13.01
2022-09-17T23:21:39.908Z,13.01
2022-09-17T23:24:08.402Z,13.03
2022-09-17T23:26:36.242Z,13.06
2022-09-17T23:29:05.533Z,13.05
2022-09-17T23:31:37.294Z,13.04
2022-09-17T23:34:05.900Z,13.03
2022-09-17T23:36:35.258Z,13.05
2022-09-17T23:39:04.059Z,13.05
2022-09-17T23:41:33.357Z,13.06
2022-09-17T23:44:02.714Z,13.07
2022-09-17T23:46:31.432Z,13.08
2022-09-17T23:49:00.266Z,13.08
2022-09-17T23:51:30.738Z,13.07
2022-09-17T23:53:59.690Z,13.04
2022-09-17T23:56:28.328Z,13.02
2022-09-17T23:58:57.053Z,13.00
